createdAt,value
2023-02-03T00:01:57.120Z,100207.81
2023-02-03T00:04:41.108Z,100214.56
2023-02-03T00:07:25.120Z,100219.28
2023-02-03T00:10:09.925Z,100234.03
2023-02-03T00:12:53.939Z,100214.03
2023-02-03T00:15:39.221Z,100229.41
2023-02-03T00:18:23.074Z,100197.41
2023-02-03T00:21:07.207Z,100201.59
2023-02-03T00:23:51.000Z,100212.00
2023-02-03T00:26:35.006Z,100214.84
2023-02-03T00:29:21.719Z,100175.09
2023-02-03T00:32:07.388Z,100162.47
2023-02-03T00:34:51.424Z,100214.09
2023-02-03T00:37:35.183Z,100207.88
2023-02-03T00:40:19.893Z,100217.38
2023-02-03T00:43:03.695Z,100204.50
2023-02-03T00:45:47.512Z,100214.91
2023-02-03T00:48:32.595Z,100218.38
2023-02-03T00:51:16.436Z,100210.47
2023-02-03T00:54:00.280Z,100204.63
2023-02-03T00:56:46.594Z,100218.13
2023-02-03T00:59:30.537Z,100218.16
2023-02-03T01:02:14.376Z,100223.06
2023-02-03T01:04:59.571Z,100217.81
2023-02-03T01:07:43.424Z,100223.88
2023-02-03T01:10:28.970Z,100197.16
2023-02-03T01:13:12.961Z,100197.16
2023-02-03T01:15:57.271Z,100221.56
2023-02-03T01:18:44.176Z,100244.03
2023-02-03T01:21:29.918Z,100202.41
2023-02-03T01:24:15.276Z,100204.22
2023-02-03T01:26:59.291Z,100210.09
2023-02-03T01:29:45.363Z,100216.47
2023-02-03T01:32:29.503Z,100175.72
2023-02-03T01:35:14.267Z,100198.94
2023-02-03T01:38:01.239Z,100247.28
2023-02-03T01:40:46.035Z,100252.59
2023-02-03T01:43:32.435Z,100205.16
2023-02-03T01:46:27.920Z,100156.78
2023-02-03T01:49:14.659Z,100199.06
2023-02-03T01:51:58.798Z,100204.19
2023-02-03T01:54:47.051Z,100259.38
2023-02-03T01:57:35.966Z,100209.47
2023-02-03T02:00:20.967Z,100185.34
2023-02-03T02:03:07.213Z,100246.41
2023-02-03T02:05:58.086Z,100246.75
2023-02-03T02:08:45.806Z,100206.56
2023-02-03T02:11:31.612Z,100216.59
2023-02-03T02:14:16.007Z,100251.53
2023-02-03T02:17:08.379Z,100193.09
2023-02-03T02:20:23.584Z,100222.16
2023-02-03T02:23:42.075Z,100204.28
2023-02-03T02:26:44.405Z,100228.72
2023-02-03T02:30:15.996Z,100268.09
2023-02-03T02:33:12.120Z,100262.16
2023-02-03T02:36:03.774Z,100239.97
2023-02-03T02:38:58.983Z,100196.56
2023-02-03T02:41:48.987Z,100231.97
2023-02-03T02:44:36.859Z,100252.50
2023-02-03T02:47:22.656Z,100269.72
2023-02-03T02:50:15.295Z,100261.09
2023-02-03T02:53:00.394Z,100269.84
2023-02-03T02:55:46.157Z,100268.50
2023-02-03T02:58:31.316Z,100259.75
2023-02-03T03:01:15.866Z,100214.38
2023-02-03T03:04:03.632Z,100251.22
2023-02-03T03:06:53.997Z,100235.94
2023-02-03T03:09:42.917Z,100255.16
2023-02-03T03:12:31.241Z,100195.50
2023-02-03T03:15:20.512Z,100241.03
2023-02-03T03:18:09.280Z,100258.91
2023-02-03T03:20:57.322Z,100271.59
2023-02-03T03:23:47.029Z,100281.09
2023-02-03T03:26:36.043Z,100233.38
2023-02-03T03:29:23.687Z,100277.34
2023-02-03T03:32:07.737Z,100276.53
2023-02-03T03:34:52.592Z,100297.94
2023-02-03T03:37:39.464Z,100291.13
2023-02-03T03:40:29.787Z,100299.09
2023-02-03T03:43:18.085Z,100309.53
2023-02-03T03:46:08.527Z,100291.34
2023-02-03T03:48:55.774Z,100308.72
2023-02-03T03:51:44.964Z,100307.97
2023-02-03T03:54:31.661Z,100306.97
2023-02-03T03:57:23.172Z,100293.06
2023-02-03T04:00:10.440Z,100305.06
2023-02-03T04:03:01.083Z,100308.66
2023-02-03T04:05:45.183Z,100320.03
2023-02-03T04:08:28.934Z,100322.66
2023-02-03T04:11:32.767Z,100340.00
2023-02-03T04:14:17.887Z,100339.28
2023-02-03T04:17:02.278Z,100345.41
2023-02-03T04:19:46.012Z,100346.22
2023-02-03T04:22:29.780Z,100357.44
2023-02-03T04:25:13.788Z,100343.44
2023-02-03T04:27:57.602Z,100352.31
2023-02-03T04:30:42.839Z,100331.81
2023-02-03T04:33:26.553Z,100350.94
2023-02-03T04:36:10.747Z,100308.72
2023-02-03T04:38:54.617Z,100357.84
2023-02-03T04:41:38.463Z,100357.91
2023-02-03T04:44:22.182Z,100359.50
2023-02-03T04:47:07.433Z,100364.88
2023-02-03T04:49:51.261Z,100367.50
2023-02-03T04:52:34.997Z,100377.94
2023-02-03T04:55:18.865Z,100383.84
2023-02-03T04:58:03.017Z,100369.97
2023-02-03T05:00:46.909Z,100360.59
2023-02-03T05:03:32.111Z,100373.56
2023-02-03T05:06:16.076Z,100375.47
2023-02-03T05:09:00.305Z,100382.25
2023-02-03T05:11:44.086Z,100384.81
2023-02-03T05:14:27.961Z,100389.16
2023-02-03T05:17:11.787Z,100389.38
2023-02-03T05:19:56.947Z,100396.06
2023-02-03T05:22:40.996Z,100391.72
2023-02-03T05:25:24.809Z,100401.22
2023-02-03T05:28:08.709Z,100427.06
2023-02-03T05:30:52.503Z,100425.31
2023-02-03T05:33:36.395Z,100414.06
2023-02-03T05:36:21.589Z,100415.81
2023-02-03T05:39:05.594Z,100366.69
2023-02-03T05:41:56.470Z,100418.56
2023-02-03T05:44:41.080Z,100421.06
2023-02-03T05:47:24.843Z,100417.63
2023-02-03T05:50:09.299Z,100430.53
2023-02-03T05:52:54.491Z,100436.38
2023-02-03T05:55:38.927Z,100433.56
2023-02-03T05:58:22.813Z,100433.53
2023-02-03T06:01:06.812Z,100391.31
2023-02-03T06:03:50.989Z,100391.16
2023-02-03T06:06:35.281Z,100386.00
2023-02-03T06:09:20.533Z,100396.38
2023-02-03T06:12:04.714Z,100454.19
2023-02-03T06:14:48.524Z,100458.38
2023-02-03T06:17:32.695Z,100464.28
2023-02-03T06:20:18.759Z,100450.53
2023-02-03T06:23:02.751Z,100457.72
2023-02-03T06:25:50.021Z,100462.00
2023-02-03T06:28:33.976Z,100458.34
2023-02-03T06:31:18.056Z,100405.84
2023-02-03T06:34:02.718Z,100459.03
2023-02-03T06:36:47.375Z,100455.47
2023-02-03T06:39:31.080Z,100476.91
2023-02-03T06:42:16.551Z,100470.84
2023-02-03T06:45:00.520Z,100488.06
2023-02-03T06:47:45.898Z,100488.06
2023-02-03T06:50:30.048Z,100483.56
2023-02-03T06:53:14.040Z,100487.00
2023-02-03T06:55:57.881Z,100469.81
2023-02-03T06:58:43.088Z,100492.94
2023-02-03T07:01:27.221Z,100447.50
2023-02-03T07:04:11.366Z,100444.66
2023-02-03T07:06:55.533Z,100448.13
2023-02-03T07:09:39.697Z,100445.50
2023-02-03T07:12:23.701Z,100443.13
2023-02-03T07:15:10.656Z,100495.91
2023-02-03T07:17:55.649Z,100444.75
2023-02-03T07:20:39.747Z,100483.84
2023-02-03T07:23:23.806Z,100497.63
2023-02-03T07:26:09.209Z,100499.91
2023-02-03T07:28:54.739Z,100481.06
2023-02-03T07:31:40.358Z,100497.28
2023-02-03T07:34:24.505Z,100451.72
2023-02-03T07:37:08.599Z,100460.31
2023-02-03T07:39:53.822Z,100496.28
2023-02-03T07:42:39.635Z,100468.03
2023-02-03T07:45:24.944Z,100465.00
2023-02-03T07:48:10.652Z,100468.44
2023-02-03T07:50:54.488Z,100443.13
2023-02-03T07:53:38.565Z,100460.16
2023-02-03T07:56:22.766Z,100499.53
2023-02-03T07:59:06.744Z,100496.50
2023-02-03T08:01:50.718Z,100489.88
2023-02-03T08:04:36.127Z,100492.16
2023-02-03T08:07:20.204Z,100468.09
2023-02-03T08:10:04.253Z,100482.53
2023-02-03T08:12:48.533Z,100536.22
2023-02-03T08:15:32.672Z,100521.34
2023-02-03T08:18:16.752Z,100519.66
2023-02-03T08:21:03.760Z,100490.19
2023-02-03T08:23:47.792Z,100540.31
2023-02-03T08:26:31.803Z,100501.53
2023-02-03T08:29:15.800Z,100528.78
2023-02-03T08:32:00.144Z,100523.56
2023-02-03T08:34:44.480Z,100477.63
2023-02-03T08:37:31.931Z,100474.47
2023-02-03T08:40:15.889Z,100519.22
2023-02-03T08:42:59.955Z,100488.00
2023-02-03T08:45:44.347Z,100524.84
2023-02-03T08:48:28.405Z,100503.59
2023-02-03T08:51:13.645Z,100498.03
2023-02-03T08:53:59.098Z,100546.06
2023-02-03T08:56:43.378Z,100492.28
2023-02-03T08:59:27.373Z,100485.53
2023-02-03T09:02:15.828Z,100490.84
2023-02-03T09:05:00.000Z,100490.19
2023-02-03T09:07:44.304Z,100547.63
2023-02-03T09:10:30.219Z,100499.88
2023-02-03T09:13:14.591Z,100490.91
2023-02-03T09:16:01.943Z,100533.00
2023-02-03T09:18:46.783Z,100515.41
2023-02-03T09:21:34.885Z,100489.28
2023-02-03T09:24:24.791Z,100497.41
2023-02-03T09:27:10.113Z,100528.44
2023-02-03T09:29:53.909Z,100533.41
2023-02-03T09:32:37.622Z,100528.63
2023-02-03T09:35:21.486Z,100527.59
2023-02-03T09:38:05.223Z,100480.19
2023-02-03T09:41:09.399Z,100525.38
2023-02-03T09:44:02.718Z,100523.19
2023-02-03T09:46:49.995Z,100540.91
2023-02-03T09:49:41.247Z,100527.28
2023-02-03T09:52:26.823Z,100537.78
2023-02-03T09:55:20.349Z,100548.03
2023-02-03T09:58:06.995Z,100547.69
2023-02-03T10:00:54.959Z,100514.78
2023-02-03T10:03:47.433Z,100528.66
2023-02-03T10:06:37.311Z,100523.00
2023-02-03T10:09:27.542Z,100525.41
2023-02-03T10:12:32.263Z,100503.84
2023-02-03T10:15:36.988Z,100536.94
2023-02-03T10:18:26.726Z,100534.69
2023-02-03T10:21:17.150Z,100532.31
2023-02-03T10:24:03.181Z,100515.03
2023-02-03T10:26:47.792Z,100526.53
2023-02-03T10:29:37.019Z,100525.88
2023-02-03T10:32:20.787Z,100499.69
2023-02-03T10:35:12.613Z,100526.59
2023-02-03T10:37:59.522Z,100512.97
2023-02-03T10:40:43.460Z,100521.88
2023-02-03T10:43:46.716Z,100521.25
2023-02-03T10:46:33.503Z,100477.72
2023-02-03T10:49:19.237Z,100511.16
2023-02-03T10:52:05.089Z,100485.75
2023-02-03T10:54:48.934Z,100522.59
2023-02-03T10:57:32.796Z,100522.34
2023-02-03T11:00:24.553Z,100519.31
2023-02-03T11:03:25.035Z,100533.84
2023-02-03T11:06:11.590Z,100525.81
2023-02-03T11:08:57.752Z,100524.31
2023-02-03T11:11:42.058Z,100478.22
2023-02-03T11:14:25.878Z,100520.72
2023-02-03T11:17:14.076Z,100512.19
2023-02-03T11:20:06.424Z,100503.28
2023-02-03T11:22:50.523Z,100509.38
2023-02-03T11:25:35.857Z,100513.44
2023-02-03T11:28:19.846Z,100510.75
2023-02-03T11:31:03.855Z,100503.91
2023-02-03T11:33:55.988Z,100513.34
2023-02-03T11:36:39.872Z,100519.34
2023-02-03T11:39:29.299Z,100507.31
2023-02-03T11:42:24.901Z,100506.13
2023-02-03T11:45:16.669Z,100499.88
2023-02-03T11:48:03.854Z,100513.59
2023-02-03T11:50:50.856Z,100479.66
2023-02-03T11:53:57.145Z,100512.38
2023-02-03T11:56:59.026Z,100488.84
2023-02-03T11:59:58.654Z,100517.97
2023-02-03T12:03:23.869Z,100520.00
2023-02-03T12:06:30.226Z,100509.91
2023-02-03T12:09:24.032Z,100507.84
2023-02-03T12:12:30.785Z,100504.09
2023-02-03T12:15:53.023Z,100502.75
2023-02-03T12:18:52.879Z,100512.41
2023-02-03T12:21:47.622Z,100481.44
2023-02-03T12:24:40.665Z,100510.72
2023-02-03T12:27:36.580Z,100505.97
2023-02-03T12:30:27.133Z,100469.47
2023-02-03T12:33:18.737Z,100504.69
2023-02-03T12:36:09.638Z,100511.97
2023-02-03T12:38:59.260Z,100504.31
2023-02-03T12:41:49.940Z,100511.47
2023-02-03T12:44:41.805Z,100517.44
2023-02-03T12:47:31.677Z,100516.91
2023-02-03T12:50:19.356Z,100515.81
2023-02-03T12:53:12.577Z,100517.56
2023-02-03T12:56:03.024Z,100519.88
2023-02-03T12:58:51.766Z,100498.44
2023-02-03T13:01:39.301Z,100512.28
2023-02-03T13:04:34.057Z,100510.25
2023-02-03T13:07:26.356Z,100509.38
2023-02-03T13:10:20.623Z,100492.81
2023-02-03T13:13:07.735Z,100460.31
2023-02-03T13:15:54.355Z,100500.59
2023-02-03T13:18:41.440Z,100502.97
2023-02-03T13:21:25.311Z,100491.59
2023-02-03T13:24:12.212Z,100441.75
2023-02-03T13:27:15.361Z,100490.97
2023-02-03T13:30:22.974Z,100494.03
2023-02-03T13:33:38.020Z,100485.78
2023-02-03T13:36:55.081Z,100474.09
2023-02-03T13:39:52.803Z,100480.13
2023-02-03T13:42:42.879Z,100479.88
2023-02-03T13:45:30.116Z,100473.41
2023-02-03T13:48:19.686Z,100480.53
2023-02-03T13:51:08.529Z,100485.06
2023-02-03T13:54:00.144Z,100484.22
2023-02-03T13:56:45.590Z,100482.75
2023-02-03T13:59:43.182Z,100487.44
2023-02-03T14:02:54.849Z,100493.38
2023-02-03T14:05:50.956Z,100473.09
2023-02-03T14:08:53.761Z,100488.44
2023-02-03T14:11:43.369Z,100492.13
2023-02-03T14:14:46.689Z,100494.78
2023-02-03T14:18:21.704Z,100502.59
2023-02-03T14:21:19.483Z,100498.66
2023-02-03T14:24:09.880Z,100471.91
2023-02-03T14:26:56.042Z,100505.19
2023-02-03T14:29:39.987Z,100518.16
2023-02-03T14:32:25.226Z,100520.56
2023-02-03T14:35:18.493Z,100479.56
2023-02-03T14:38:05.336Z,100505.75
2023-02-03T14:40:54.987Z,100521.09
2023-02-03T14:43:45.022Z,100512.44
2023-02-03T14:46:45.522Z,100506.13
2023-02-03T14:49:55.347Z,100504.66
2023-02-03T14:52:55.143Z,100508.91
2023-02-03T14:55:53.714Z,100516.09
2023-02-03T14:58:43.123Z,100513.69
2023-02-03T15:01:48.112Z,100524.16
2023-02-03T15:04:32.107Z,100520.69
2023-02-03T15:07:37.424Z,100533.72
2023-02-03T15:10:23.442Z,100539.66
2023-02-03T15:13:07.308Z,100562.59
2023-02-03T15:15:54.856Z,100578.84
2023-02-03T15:18:40.953Z,100568.06
2023-02-03T15:21:25.090Z,100569.13
2023-02-03T15:24:15.984Z,100545.78
2023-02-03T15:26:59.909Z,100509.47
2023-02-03T15:29:43.765Z,100523.44
2023-02-03T15:32:34.164Z,100517.63
2023-02-03T15:35:21.988Z,100512.13
2023-02-03T15:38:11.451Z,100512.50
2023-02-03T15:40:59.124Z,100505.22
2023-02-03T15:43:45.601Z,100477.47
2023-02-03T15:46:33.370Z,100503.56
2023-02-03T15:49:23.003Z,100511.72
2023-02-03T15:52:13.261Z,100508.19
2023-02-03T15:55:08.908Z,100506.66
2023-02-03T15:57:54.218Z,100519.69
2023-02-03T16:00:41.742Z,100506.00
2023-02-03T16:03:34.769Z,100512.94
2023-02-03T16:06:25.530Z,100505.31
2023-02-03T16:09:36.373Z,100506.22
2023-02-03T16:12:24.379Z,100462.25
2023-02-03T16:15:23.922Z,100505.28
2023-02-03T16:18:17.915Z,100498.09
2023-02-03T16:21:01.805Z,100467.22
2023-02-03T16:23:51.207Z,100498.75
2023-02-03T16:26:36.785Z,100498.09
2023-02-03T16:29:37.690Z,100496.22
2023-02-03T16:32:40.124Z,100494.75
2023-02-03T16:35:41.820Z,100494.59
2023-02-03T16:38:42.917Z,100471.16
2023-02-03T16:41:44.232Z,100494.75
2023-02-03T16:44:45.807Z,100493.75
2023-02-03T16:47:49.995Z,100489.75
2023-02-03T16:50:52.020Z,100499.38
2023-02-03T16:53:35.779Z,100494.84
2023-02-03T16:56:19.650Z,100492.84
2023-02-03T16:59:03.488Z,100483.00
2023-02-03T17:01:47.329Z,100509.38
2023-02-03T17:04:32.508Z,100504.06
2023-02-03T17:07:16.266Z,100494.97
2023-02-03T17:10:00.103Z,100482.88
2023-02-03T17:12:44.065Z,100485.97
2023-02-03T17:15:28.151Z,100478.06
2023-02-03T17:18:12.072Z,100479.81
2023-02-03T17:20:58.971Z,100485.75
2023-02-03T17:23:42.901Z,100480.03
2023-02-03T17:26:26.785Z,100486.94
2023-02-03T17:29:11.498Z,100499.47
2023-02-03T17:31:55.321Z,100502.47
2023-02-03T17:34:39.162Z,100494.69
2023-02-03T17:37:24.284Z,100474.66
2023-02-03T17:55:19.723Z,100485.97
2023-02-03T17:58:04.038Z,100478.28
2023-02-03T18:00:47.790Z,100477.41
2023-02-03T18:03:31.497Z,100480.47
2023-02-03T18:06:16.660Z,100435.34
2023-02-03T18:09:02.535Z,100475.72
2023-02-03T18:11:47.917Z,100467.66
2023-02-03T18:14:31.768Z,100455.63
2023-02-03T18:17:15.624Z,100463.19
2023-02-03T18:20:00.642Z,100454.41
2023-02-03T18:22:45.572Z,100434.00
2023-02-03T18:25:29.383Z,100454.81
2023-02-03T18:28:16.047Z,100453.69
2023-02-03T18:31:00.827Z,100442.28
2023-02-03T18:33:46.325Z,100443.69
2023-02-03T18:36:30.147Z,100432.53
2023-02-03T18:39:15.571Z,100421.28
2023-02-03T18:41:59.400Z,100403.69
2023-02-03T18:44:45.312Z,100412.94
2023-02-03T18:47:29.264Z,100411.47
2023-02-03T18:50:13.202Z,100414.41
2023-02-03T18:52:57.339Z,100367.97
2023-02-03T18:55:42.331Z,100400.56
2023-02-03T18:58:26.165Z,100402.72
2023-02-03T19:01:11.481Z,100388.59
2023-02-03T19:03:56.393Z,100402.97
2023-02-03T19:06:45.434Z,100385.22
2023-02-03T19:09:29.258Z,100399.22
2023-02-03T19:12:13.813Z,100377.03
2023-02-03T19:14:57.621Z,100401.44
2023-02-03T19:17:42.813Z,100404.59
2023-02-03T19:20:26.708Z,100378.56
2023-02-03T19:23:11.076Z,100393.28
2023-02-03T19:25:55.567Z,100401.88
2023-02-03T19:28:39.663Z,100401.88
2023-02-03T19:31:23.619Z,100392.34
2023-02-03T19:34:08.891Z,100387.88
2023-02-03T19:36:52.762Z,100377.63
2023-02-03T19:39:36.560Z,100382.72
2023-02-03T19:42:20.298Z,100378.31
2023-02-03T19:45:05.116Z,100370.66
2023-02-03T19:47:48.967Z,100388.31
2023-02-03T19:50:34.271Z,100373.84
2023-02-03T19:53:19.429Z,100363.84
2023-02-03T19:56:03.245Z,100370.97
2023-02-03T19:58:52.033Z,100373.59
2023-02-03T20:01:36.476Z,100366.13
2023-02-03T20:04:20.351Z,100347.28
2023-02-03T20:07:05.490Z,100342.22
2023-02-03T20:09:49.174Z,100345.56
2023-02-03T20:12:32.982Z,100342.34
2023-02-03T20:15:16.856Z,100340.75
2023-02-03T20:18:00.595Z,100331.16
2023-02-03T20:20:44.398Z,100334.59
2023-02-03T20:23:29.667Z,100333.31
2023-02-03T20:26:14.293Z,100325.78
2023-02-03T20:28:58.135Z,100317.84
2023-02-03T20:31:42.024Z,100314.16
2023-02-03T20:34:27.510Z,100327.06
2023-02-03T20:37:11.348Z,100332.25
2023-02-03T20:39:56.561Z,100302.22
2023-02-03T20:42:41.100Z,100312.75
2023-02-03T20:45:25.905Z,100309.81
2023-02-03T20:48:12.170Z,100309.78
2023-02-03T20:50:56.002Z,100286.59
2023-02-03T20:53:40.332Z,100304.59
2023-02-03T20:56:26.423Z,100281.31
2023-02-03T20:59:12.449Z,100293.91
2023-02-03T21:01:56.268Z,100297.38
2023-02-03T21:04:57.845Z,100264.88
2023-02-03T21:07:41.572Z,100284.56
2023-02-03T21:10:26.243Z,100286.47
2023-02-03T21:13:21.769Z,100278.63
2023-02-03T21:16:16.398Z,100278.75
2023-02-03T21:19:03.122Z,100275.81
2023-02-03T21:21:47.571Z,100229.19
2023-02-03T21:24:35.580Z,100264.38
2023-02-03T21:27:28.664Z,100242.91
2023-02-03T21:30:30.946Z,100277.69
2023-02-03T21:33:30.113Z,100256.94
2023-02-03T21:36:18.193Z,100277.63
2023-02-03T21:39:02.637Z,100260.31
2023-02-03T21:41:46.638Z,100260.94
2023-02-03T21:44:33.913Z,100262.75
2023-02-03T21:47:20.076Z,100251.81
2023-02-03T21:50:04.569Z,100253.63
2023-02-03T21:52:48.452Z,100239.84
2023-02-03T21:55:32.389Z,100220.75
2023-02-03T21:58:23.923Z,100230.97
2023-02-03T22:01:08.597Z,100216.59
2023-02-03T22:03:55.034Z,100224.41
2023-02-03T22:06:44.639Z,100225.97
2023-02-03T22:09:28.695Z,100181.00
2023-02-03T22:12:12.440Z,100213.63
2023-02-03T22:14:56.171Z,100203.88
2023-02-03T22:17:40.702Z,100200.66
2023-02-03T22:20:25.921Z,100195.34
2023-02-03T22:23:09.687Z,100198.75
2023-02-03T22:25:53.796Z,100184.81
2023-02-03T22:28:38.065Z,100183.88
2023-02-03T22:31:22.938Z,100178.72
2023-02-03T22:34:06.761Z,100171.69
2023-02-03T22:36:51.900Z,100168.22
2023-02-03T22:39:35.628Z,100160.38
2023-02-03T22:42:19.460Z,100158.50
2023-02-03T22:45:03.265Z,100162.16
2023-02-03T22:47:47.775Z,100145.78
2023-02-03T22:50:35.962Z,100143.06
2023-02-03T22:53:21.619Z,100136.03
2023-02-03T22:56:05.687Z,100135.06
2023-02-03T22:58:49.521Z,100104.03
2023-02-03T23:01:34.643Z,100131.47
2023-02-03T23:04:18.430Z,100124.59
2023-02-03T23:07:02.134Z,100120.19
2023-02-03T23:09:47.475Z,100109.91
2023-02-03T23:12:31.213Z,100105.84
2023-02-03T23:15:18.026Z,100101.63
2023-02-03T23:18:01.936Z,99903.81
2023-02-03T23:20:45.727Z,100096.53
2023-02-03T23:23:29.608Z,100084.19
2023-02-03T23:26:14.722Z,100059.81
2023-02-03T23:28:58.541Z,99896.66
2023-02-03T23:31:42.343Z,100087.78
2023-02-03T23:34:43.751Z,100033.66
2023-02-03T23:37:27.512Z,100078.22
2023-02-03T23:40:12.379Z,100064.13
2023-02-03T23:42:58.148Z,100063.41
2023-02-03T23:45:42.433Z,100071.31
2023-02-03T23:48:26.281Z,100068.59
2023-02-03T23:51:10.203Z,100070.34
2023-02-03T23:53:53.936Z,100067.81
2023-02-03T23:56:37.819Z,100078.97
2023-02-03T23:59:23.046Z,100045.41
